Terminal Aerodrome Forecast
Issued by NWS Charleston, WV

Home | Current Version | Previous Version | Text Only | Print | Product List | Glossary On
Versions: 1 2 3 4 5 6 7 8 9 10 11 12 13 14 15 16 17 18 19 20 21 22
000
FTUS41 KRLX 280904 AAA
TAFBKW
TAF AMD
KBKW 280904Z 2809/2906 VRB03KT P6SM BKN040
      TEMPO 2810/2812 BKN030
     FM281500 23007KT P6SM BKN035
     FM281700 23009G15KT P6SM BKN040
     FM282000 26007KT P6SM VCTS BKN040CB
     FM290000 25006KT P6SM BKN035=

USA.gov is the U.S. government's official web portal to all federal, state and local government web resources and services.